Time;durP1;ratioP1;P1;durP2;ratioP2;P2;SDS_P1;SDS_P2;PMS_P1;PMS_P2;Temp;Humidity;BMP_temperature;BMP_pressure;BME280_temperature;BME280_humidity;BME280_pressure;Samples;Min_cycle;Max_cycle;Signal;HPM_P1;HPM_P2
2021/04/17 00:00:39;;;;;;;6.93;3.72;;;;;;;;;;5133643;27;20015;-51
2021/04/17 00:03:04;;;;;;;4.55;3.53;;;;;;;;;;5130683;27;20011;-52
2021/04/17 00:05:29;;;;;;;4.25;3.10;;;;;;;;;;5126648;27;20445;-53
2021/04/17 00:07:54;;;;;;;4.43;2.70;;;;;;;;;;5113097;28;20117;-52
2021/04/17 00:10:20;;;;;;;5.35;3.67;;;;;;;;;;5112863;28;20051;-50
2021/04/17 00:12:45;;;;;;;9.43;3.28;;;;;;;;;;5110021;28;20427;-50
2021/04/17 00:15:10;;;;;;;4.75;2.63;;;;;;;;;;5113073;28;20008;-47
2021/04/17 00:17:36;;;;;;;6.15;3.38;;;;;;;;;;5113106;28;20383;-53
2021/04/17 00:20:03;;;;;;;4.40;2.58;;;;;;;;;;5121114;28;20015;-54
2021/04/17 00:22:28;;;;;;;4.10;2.83;;;;;;;;;;5130546;27;20463;-53
2021/04/17 00:24:53;;;;;;;6.05;3.20;;;;;;;;;;5133794;28;20020;-47
2021/04/17 00:27:18;;;;;;;6.68;2.72;;;;;;;;;;5133364;28;20084;-46
2021/04/17 00:29:43;;;;;;;4.30;2.97;;;;;;;;;;5133505;28;20481;-49
2021/04/17 00:32:09;;;;;;;4.40;2.63;;;;;;;;;;5130374;28;20084;-49
2021/04/17 00:34:34;;;;;;;5.55;2.50;;;;;;;;;;5133422;27;20019;-50
2021/04/17 00:37:00;;;;;;;4.43;2.17;;;;;;;;;;5133645;27;20034;-51
2021/04/17 00:39:25;;;;;;;4.38;1.83;;;;;;;;;;5137671;27;20011;-52
2021/04/17 00:41:50;;;;;;;3.05;1.70;;;;;;;;;;5131455;27;20053;-53
2021/04/17 00:44:16;;;;;;;3.45;1.30;;;;;;;;;;5117151;28;20012;-51
2021/04/17 00:46:41;;;;;;;4.60;1.13;;;;;;;;;;5116968;28;20435;-50
2021/04/17 00:49:08;;;;;;;2.85;1.38;;;;;;;;;;5126685;27;20015;-53
2021/04/17 00:51:34;;;;;;;2.53;0.80;;;;;;;;;;5115618;27;20044;-49
2021/04/17 00:53:59;;;;;;;4.43;1.33;;;;;;;;;;5116811;28;20455;-49
2021/04/17 00:56:24;;;;;;;1.45;0.50;;;;;;;;;;5116560;28;20012;-46
2021/04/17 00:58:50;;;;;;;2.40;0.70;;;;;;;;;;5116687;28;20093;-51
2021/04/17 01:01:15;;;;;;;3.22;0.73;;;;;;;;;;5113537;28;20438;-51
2021/04/17 01:03:54;;;;;;;3.30;0.80;;;;;;;;;;5116689;28;20027;-49
2021/04/17 01:06:21;;;;;;;3.67;0.80;;;;;;;;;;5116507;28;20034;-49
2021/04/17 01:08:59;;;;;;;1.83;0.60;;;;;;;;;;5116629;28;20054;-53
2021/04/17 01:11:30;;;;;;;2.70;0.98;;;;;;;;;;5112935;28;20039;-52
2021/04/17 01:13:56;;;;;;;1.92;0.73;;;;;;;;;;5116564;28;20027;-52
2021/04/17 01:16:21;;;;;;;2.15;0.93;;;;;;;;;;5116444;28;20023;-52
2021/04/17 01:18:47;;;;;;;2.40;0.50;;;;;;;;;;5116783;27;20490;-52
2021/04/17 01:21:12;;;;;;;2.15;0.70;;;;;;;;;;5131524;27;20343;-49
2021/04/17 01:23:43;;;;;;;1.83;0.52;;;;;;;;;;5137161;27;20011;-51
2021/04/17 01:26:13;;;;;;;0.80;0.50;;;;;;;;;;5136806;27;20424;-51
2021/04/17 01:28:51;;;;;;;2.53;0.88;;;;;;;;;;5136709;27;20042;-52
2021/04/17 01:31:18;;;;;;;2.15;0.80;;;;;;;;;;5133495;27;20234;-53
2021/04/17 01:33:46;;;;;;;1.98;1.00;;;;;;;;;;5136618;27;20493;-52
2021/04/17 01:36:12;;;;;;;1.70;0.65;;;;;;;;;;5136484;27;20034;-52
2021/04/17 01:38:41;;;;;;;3.80;0.60;;;;;;;;;;5136590;27;20023;-52
2021/04/17 01:41:25;;;;;;;2.67;0.70;;;;;;;;;;5133713;27;20019;-52
2021/04/17 01:43:52;;;;;;;1.77;0.63;;;;;;;;;;5136214;27;20378;-52
2021/04/17 01:46:19;;;;;;;1.48;0.60;;;;;;;;;;5136478;27;20015;-51
2021/04/17 01:48:45;;;;;;;1.58;0.50;;;;;;;;;;5129262;27;20032;-49
2021/04/17 01:51:11;;;;;;;6.18;1.08;;;;;;;;;;5112460;28;20110;-53
2021/04/17 01:53:37;;;;;;;3.53;1.25;;;;;;;;;;5115694;28;20112;-49
2021/04/17 01:56:03;;;;;;;1.70;0.57;;;;;;;;;;5117161;27;20023;-51
2021/04/17 01:58:30;;;;;;;3.00;0.75;;;;;;;;;;5136048;27;20409;-53
2021/04/17 02:00:56;;;;;;;2.15;0.80;;;;;;;;;;5134959;27;20047;-51
2021/04/17 02:03:21;;;;;;;1.73;0.80;;;;;;;;;;5134076;27;20441;-51
2021/04/17 02:05:48;;;;;;;3.92;0.65;;;;;;;;;;5136142;27;20068;-50
2021/04/17 02:08:13;;;;;;;1.45;0.52;;;;;;;;;;5135750;27;20026;-50
2021/04/17 02:10:38;;;;;;;2.05;0.45;;;;;;;;;;5135494;27;20470;-53
2021/04/17 02:13:05;;;;;;;2.05;0.70;;;;;;;;;;5132981;27;20022;-52
2021/04/17 02:15:32;;;;;;;3.50;0.70;;;;;;;;;;5135909;27;20023;-50
2021/04/17 02:18:01;;;;;;;2.00;0.60;;;;;;;;;;5135781;27;20011;-50
2021/04/17 02:20:31;;;;;;;1.33;0.50;;;;;;;;;;5124472;27;20028;-50
2021/04/17 02:22:56;;;;;;;1.30;0.60;;;;;;;;;;5112103;28;20019;-51
2021/04/17 02:25:22;;;;;;;2.55;0.73;;;;;;;;;;5114904;28;20023;-54
2021/04/17 02:27:47;;;;;;;0.80;0.40;;;;;;;;;;5115146;28;20528;-51
2021/04/17 02:30:13;;;;;;;1.65;0.60;;;;;;;;;;5115273;28;20124;-51
2021/04/17 02:32:38;;;;;;;2.65;0.77;;;;;;;;;;5111871;28;20387;-50
2021/04/17 02:35:03;;;;;;;2.22;0.47;;;;;;;;;;5114824;28;20015;-47
2021/04/17 02:37:29;;;;;;;2.77;0.60;;;;;;;;;;5114730;28;20439;-52
2021/04/17 02:39:54;;;;;;;6.00;0.70;;;;;;;;;;5114465;28;20076;-53
2021/04/17 02:42:20;;;;;;;3.25;0.70;;;;;;;;;;5111477;28;20068;-49
2021/04/17 02:44:45;;;;;;;0.73;0.55;;;;;;;;;;5114809;28;20050;-51
2021/04/17 02:47:11;;;;;;;4.13;0.52;;;;;;;;;;5114662;28;20110;-53
2021/04/17 02:49:36;;;;;;;1.40;0.40;;;;;;;;;;5128343;27;20034;-48
2021/04/17 02:52:01;;;;;;;2.77;0.63;;;;;;;;;;5131856;27;20040;-49
2021/04/17 02:54:26;;;;;;;1.83;0.60;;;;;;;;;;5135059;27;20015;-46
2021/04/17 02:56:52;;;;;;;1.33;0.50;;;;;;;;;;5125644;27;20031;-47
2021/04/17 02:59:17;;;;;;;1.70;0.60;;;;;;;;;;5114529;28;20026;-51
2021/04/17 03:01:42;;;;;;;2.65;0.43;;;;;;;;;;5110715;28;20093;-51
2021/04/17 03:04:07;;;;;;;3.80;0.70;;;;;;;;;;5114258;28;20026;-50
2021/04/17 03:06:33;;;;;;;1.73;0.40;;;;;;;;;;5114224;28;20031;-52
2021/04/17 03:08:58;;;;;;;3.00;0.60;;;;;;;;;;5114117;28;20020;-53
2021/04/17 03:11:24;;;;;;;3.30;0.50;;;;;;;;;;5110856;28;20019;-52
2021/04/17 03:13:49;;;;;;;3.85;0.65;;;;;;;;;;5133554;27;20023;-50
2021/04/17 03:16:15;;;;;;;1.80;0.50;;;;;;;;;;5134773;27;20023;-49
2021/04/17 03:18:40;;;;;;;2.77;0.73;;;;;;;;;;5134649;27;20058;-52
2021/04/17 03:21:05;;;;;;;4.60;0.60;;;;;;;;;;5115472;27;20023;-49
2021/04/17 03:23:30;;;;;;;2.33;0.60;;;;;;;;;;5113320;28;20027;-51
2021/04/17 03:25:56;;;;;;;3.50;0.75;;;;;;;;;;5113611;28;20080;-51
2021/04/17 03:28:21;;;;;;;2.42;0.70;;;;;;;;;;5113793;28;20072;-53
2021/04/17 03:30:46;;;;;;;2.13;0.60;;;;;;;;;;5113822;28;20106;-52
2021/04/17 03:33:11;;;;;;;3.60;0.60;;;;;;;;;;5110682;28;20094;-51
2021/04/17 03:35:36;;;;;;;2.30;0.80;;;;;;;;;;5126578;27;20015;-49
2021/04/17 03:38:02;;;;;;;2.08;0.68;;;;;;;;;;5134110;27;20385;-49
2021/04/17 03:40:28;;;;;;;2.47;0.60;;;;;;;;;;5133908;27;20023;-52
2021/04/17 03:42:53;;;;;;;2.70;0.68;;;;;;;;;;5130983;27;20015;-50
2021/04/17 03:45:18;;;;;;;1.55;0.70;;;;;;;;;;5134176;27;20084;-46
2021/04/17 03:47:44;;;;;;;2.75;0.77;;;;;;;;;;5134300;27;20412;-53
2021/04/17 03:50:10;;;;;;;2.92;0.50;;;;;;;;;;5127084;27;20437;-48
2021/04/17 03:52:35;;;;;;;4.57;0.77;;;;;;;;;;5110067;27;20066;-50
2021/04/17 03:55:01;;;;;;;1.65;0.70;;;;;;;;;;5113044;28;20016;-51
2021/04/17 03:57:26;;;;;;;3.83;0.80;;;;;;;;;;5113070;27;20016;-52
2021/04/17 03:59:52;;;;;;;3.63;1.20;;;;;;;;;;5113211;28;20069;-50
2021/04/17 04:02:17;;;;;;;3.88;1.15;;;;;;;;;;5110502;28;20379;-48
2021/04/17 04:04:42;;;;;;;5.80;0.82;;;;;;;;;;5113289;28;20034;-54
2021/04/17 04:07:07;;;;;;;3.10;0.80;;;;;;;;;;5113031;27;20027;-51
2021/04/17 04:09:33;;;;;;;1.60;0.80;;;;;;;;;;5112875;28;20035;-51
2021/04/17 04:11:58;;;;;;;6.40;1.17;;;;;;;;;;5108935;28;20023;-49
2021/04/17 04:14:24;;;;;;;3.25;0.85;;;;;;;;;;5113085;28;20020;-53
2021/04/17 04:16:49;;;;;;;3.28;0.90;;;;;;;;;;5113052;28;20020;-50
2021/04/17 04:19:14;;;;;;;3.80;1.40;;;;;;;;;;5113222;28;20379;-51
2021/04/17 04:21:40;;;;;;;3.30;0.90;;;;;;;;;;5109922;28;20028;-52
2021/04/17 04:24:05;;;;;;;4.13;0.93;;;;;;;;;;5112979;28;20012;-50
2021/04/17 04:26:30;;;;;;;4.70;1.00;;;;;;;;;;5113128;28;20053;-51
2021/04/17 04:28:56;;;;;;;4.10;1.30;;;;;;;;;;5112848;28;20016;-50
2021/04/17 04:31:21;;;;;;;3.28;1.05;;;;;;;;;;5109703;28;20015;-49
2021/04/17 04:33:46;;;;;;;2.55;1.17;;;;;;;;;;5113133;28;20015;-51
2021/04/17 04:36:11;;;;;;;2.90;1.40;;;;;;;;;;5130604;28;20015;-51
2021/04/17 04:38:37;;;;;;;2.80;1.00;;;;;;;;;;5133482;28;20015;-50
2021/04/17 04:41:02;;;;;;;3.85;0.90;;;;;;;;;;5131262;27;20049;-52
2021/04/17 04:43:27;;;;;;;4.70;1.30;;;;;;;;;;5132685;28;20015;-52
2021/04/17 04:45:52;;;;;;;3.13;0.90;;;;;;;;;;5133560;28;20026;-48
2021/04/17 04:48:18;;;;;;;3.67;1.50;;;;;;;;;;5130300;27;20077;-50
2021/04/17 04:50:43;;;;;;;1.75;0.90;;;;;;;;;;5112314;28;20114;-51
2021/04/17 04:53:08;;;;;;;3.58;0.90;;;;;;;;;;5109642;28;20121;-47
2021/04/17 04:55:33;;;;;;;2.87;1.10;;;;;;;;;;5112596;28;20023;-48
2021/04/17 04:57:59;;;;;;;3.30;1.30;;;;;;;;;;5132013;28;20016;-52
2021/04/17 05:00:24;;;;;;;3.33;1.27;;;;;;;;;;5132984;28;20113;-50
2021/04/17 05:02:49;;;;;;;2.38;1.27;;;;;;;;;;5130120;27;20040;-50
2021/04/17 05:05:15;;;;;;;3.57;1.30;;;;;;;;;;5133449;27;20039;-52
2021/04/17 05:07:40;;;;;;;3.97;1.70;;;;;;;;;;5133117;27;20110;-47
2021/04/17 05:10:06;;;;;;;4.67;1.50;;;;;;;;;;5132634;28;20023;-49
2021/04/17 05:12:31;;;;;;;5.07;2.30;;;;;;;;;;5129895;27;20015;-48
2021/04/17 05:14:57;;;;;;;5.60;2.27;;;;;;;;;;5133068;28;20019;-53
2021/04/17 05:17:22;;;;;;;12.53;5.37;;;;;;;;;;5133020;28;20060;-49
2021/04/17 05:19:47;;;;;;;8.77;4.37;;;;;;;;;;5133015;28;20027;-49
2021/04/17 05:22:12;;;;;;;4.20;2.37;;;;;;;;;;5130414;27;20023;-50
2021/04/17 05:24:38;;;;;;;4.70;2.20;;;;;;;;;;5136102;27;20350;-51
2021/04/17 05:27:03;;;;;;;4.67;2.00;;;;;;;;;;5136498;27;20067;-49
2021/04/17 05:29:28;;;;;;;4.93;1.93;;;;;;;;;;5136385;27;20178;-50
2021/04/17 05:31:54;;;;;;;3.20;2.30;;;;;;;;;;5133420;27;20089;-47
2021/04/17 05:34:19;;;;;;;4.90;1.73;;;;;;;;;;5121540;27;20030;-53
2021/04/17 05:36:44;;;;;;;2.47;1.77;;;;;;;;;;5116075;28;20023;-53
2021/04/17 05:39:09;;;;;;;2.90;1.80;;;;;;;;;;5115832;28;20104;-51
2021/04/17 05:41:34;;;;;;;5.47;1.87;;;;;;;;;;5112474;28;20051;-49
2021/04/17 05:44:00;;;;;;;4.87;2.10;;;;;;;;;;5115853;28;20024;-52
2021/04/17 05:46:25;;;;;;;3.70;2.10;;;;;;;;;;5115923;28;20356;-48
2021/04/17 05:48:50;;;;;;;3.93;2.20;;;;;;;;;;5123245;27;20027;-50
2021/04/17 05:51:16;;;;;;;4.90;1.80;;;;;;;;;;5132799;27;20152;-51
2021/04/17 05:53:41;;;;;;;2.60;1.67;;;;;;;;;;5136230;27;20019;-52
2021/04/17 05:56:08;;;;;;;5.83;2.10;;;;;;;;;;5135864;27;20015;-52
2021/04/17 05:58:33;;;;;;;7.67;2.50;;;;;;;;;;5136200;27;20013;-51
2021/04/17 06:00:58;;;;;;;4.03;2.03;;;;;;;;;;5134518;27;20102;-50
2021/04/17 06:03:24;;;;;;;4.57;2.00;;;;;;;;;;5134704;27;20003;-51
2021/04/17 06:05:49;;;;;;;4.03;1.50;;;;;;;;;;5135792;27;20083;-49
2021/04/17 06:08:14;;;;;;;4.93;1.80;;;;;;;;;;5136104;27;20145;-48
2021/04/17 06:10:39;;;;;;;6.37;2.07;;;;;;;;;;5135514;27;20083;-48
2021/04/17 06:13:05;;;;;;;5.43;2.40;;;;;;;;;;5128954;27;20011;-49
2021/04/17 06:15:30;;;;;;;4.37;2.07;;;;;;;;;;5135620;27;20526;-52
2021/04/17 06:17:55;;;;;;;4.37;2.17;;;;;;;;;;5135822;27;20029;-50
2021/04/17 06:20:20;;;;;;;7.23;2.23;;;;;;;;;;5135673;27;20038;-52
2021/04/17 06:22:46;;;;;;;4.50;1.83;;;;;;;;;;5132596;27;20016;-51
2021/04/17 06:25:11;;;;;;;3.63;1.73;;;;;;;;;;5135355;27;20072;-49
2021/04/17 06:27:37;;;;;;;2.20;1.43;;;;;;;;;;5135566;27;20424;-49
2021/04/17 06:30:03;;;;;;;3.47;2.07;;;;;;;;;;5135133;27;20076;-51
2021/04/17 06:32:28;;;;;;;2.43;1.37;;;;;;;;;;5132223;27;20074;-50
2021/04/17 06:34:54;;;;;;;3.03;1.13;;;;;;;;;;5134243;27;20414;-51
2021/04/17 06:37:19;;;;;;;1.37;0.70;;;;;;;;;;5135575;27;20370;-52
2021/04/17 06:39:44;;;;;;;4.80;1.93;;;;;;;;;;5135056;27;20015;-53
2021/04/17 06:42:11;;;;;;;4.30;1.87;;;;;;;;;;5131753;27;20012;-49
2021/04/17 06:44:40;;;;;;;4.03;1.00;;;;;;;;;;5135437;27;20445;-49
2021/04/17 06:47:05;;;;;;;4.17;2.20;;;;;;;;;;5135159;27;20027;-50
2021/04/17 06:49:31;;;;;;;6.83;2.30;;;;;;;;;;5128177;27;20034;-50
2021/04/17 06:51:57;;;;;;;4.70;2.00;;;;;;;;;;5131588;27;20501;-49
2021/04/17 06:54:24;;;;;;;6.73;3.87;;;;;;;;;;5134897;27;20019;-49
2021/04/17 06:56:49;;;;;;;4.87;2.77;;;;;;;;;;5134758;27;20088;-52
2021/04/17 06:59:15;;;;;;;4.27;2.50;;;;;;;;;;5135350;27;20384;-50
2021/04/17 07:01:40;;;;;;;3.60;2.43;;;;;;;;;;5131679;27;20019;-50
2021/04/17 07:04:06;;;;;;;2.77;1.90;;;;;;;;;;5135056;27;20061;-52
2021/04/17 07:06:31;;;;;;;4.47;2.00;;;;;;;;;;5134736;27;20020;-50
2021/04/17 07:08:56;;;;;;;4.17;1.97;;;;;;;;;;5134496;27;20017;-51
2021/04/17 07:11:22;;;;;;;7.18;1.77;;;;;;;;;;5115056;27;20051;-51
2021/04/17 07:14:07;;;;;;;4.65;2.20;;;;;;;;;;5129143;27;20023;-51
2021/04/17 07:16:32;;;;;;;3.97;2.40;;;;;;;;;;5134825;27;20020;-51
2021/04/17 07:18:57;;;;;;;4.40;1.97;;;;;;;;;;5134323;27;20470;-47
2021/04/17 07:21:26;;;;;;;5.40;2.38;;;;;;;;;;5129780;27;20057;-53
2021/04/17 07:23:51;;;;;;;5.38;1.88;;;;;;;;;;5134177;27;20019;-52
2021/04/17 07:26:20;;;;;;;3.67;1.80;;;;;;;;;;5134211;27;20530;-44
2021/04/17 07:28:54;;;;;;;1.85;1.38;;;;;;;;;;5134342;27;20026;-51
2021/04/17 07:31:20;;;;;;;2.23;1.67;;;;;;;;;;5130555;27;20019;-50
2021/04/17 07:33:45;;;;;;;2.40;1.60;;;;;;;;;;5134169;27;20529;-49
2021/04/17 07:36:11;;;;;;;2.33;1.48;;;;;;;;;;5133945;27;20107;-52
2021/04/17 07:38:36;;;;;;;4.17;1.53;;;;;;;;;;5134377;27;20027;-52
2021/04/17 07:41:04;;;;;;;4.07;1.45;;;;;;;;;;5132100;27;20489;-52
2021/04/17 07:43:47;;;;;;;3.65;1.30;;;;;;;;;;5133143;27;20428;-47
2021/04/17 07:46:13;;;;;;;3.92;1.98;;;;;;;;;;5133977;27;20389;-49
2021/04/17 07:48:39;;;;;;;1.83;1.30;;;;;;;;;;5127827;27;20008;-53
2021/04/17 07:51:07;;;;;;;4.20;1.42;;;;;;;;;;5113281;27;20052;-52
2021/04/17 07:53:33;;;;;;;2.25;1.17;;;;;;;;;;5113154;28;20367;-53
2021/04/17 07:56:18;;;;;;;4.28;1.80;;;;;;;;;;5113008;28;20016;-52
2021/04/17 07:58:47;;;;;;;4.07;1.85;;;;;;;;;;5098950;28;20031;-52
2021/04/17 08:01:14;;;;;;;4.13;2.70;;;;;;;;;;5109916;28;20015;-49
2021/04/17 08:03:40;;;;;;;3.67;2.95;;;;;;;;;;5113407;28;20028;-50
2021/04/17 08:06:06;;;;;;;6.07;3.13;;;;;;;;;;5112983;28;20467;-52
2021/04/17 08:08:31;;;;;;;8.52;4.70;;;;;;;;;;5111409;28;20024;-53
2021/04/17 08:10:56;;;;;;;5.65;4.47;;;;;;;;;;5129025;27;20027;-52
2021/04/17 08:13:22;;;;;;;6.05;4.95;;;;;;;;;;5127773;27;20016;-53
2021/04/17 08:15:47;;;;;;;7.55;6.15;;;;;;;;;;5113226;28;20081;-51
2021/04/17 08:18:13;;;;;;;8.00;7.20;;;;;;;;;;5113300;28;20441;-48
2021/04/17 08:20:38;;;;;;;6.45;5.85;;;;;;;;;;5112761;28;20053;-51
2021/04/17 08:23:04;;;;;;;9.60;7.35;;;;;;;;;;5109925;28;20035;-49
2021/04/17 08:25:29;;;;;;;4.03;3.45;;;;;;;;;;5112704;28;20028;-52
2021/04/17 08:27:54;;;;;;;10.50;8.95;;;;;;;;;;5121063;28;20019;-50
2021/04/17 08:30:24;;;;;;;13.60;9.55;;;;;;;;;;5133262;28;20467;-55
2021/04/17 08:32:49;;;;;;;9.52;7.90;;;;;;;;;;5130265;27;20042;-51
2021/04/17 08:35:24;;;;;;;5.78;4.13;;;;;;;;;;5133462;27;20450;-51
2021/04/17 08:37:50;;;;;;;7.57;6.78;;;;;;;;;;5133460;27;20034;-53
2021/04/17 08:40:35;;;;;;;5.93;4.47;;;;;;;;;;5133203;28;20023;-50
2021/04/17 08:43:00;;;;;;;9.43;7.57;;;;;;;;;;5129779;28;20466;-51
2021/04/17 08:45:26;;;;;;;5.50;4.53;;;;;;;;;;5133349;27;20027;-49
2021/04/17 08:47:54;;;;;;;10.57;7.30;;;;;;;;;;5131714;28;20031;-48
2021/04/17 08:50:30;;;;;;;6.00;5.32;;;;;;;;;;5132620;28;20038;-53
2021/04/17 08:52:58;;;;;;;7.38;6.45;;;;;;;;;;5129975;27;20487;-50
2021/04/17 08:55:25;;;;;;;9.18;7.38;;;;;;;;;;5132959;28;20023;-49
2021/04/17 08:58:14;;;;;;;11.65;10.45;;;;;;;;;;5133236;27;20103;-52
2021/04/17 09:00:40;;;;;;;12.25;9.30;;;;;;;;;;5135779;27;20283;-49
2021/04/17 09:03:06;;;;;;;11.90;10.65;;;;;;;;;;5133900;27;20058;-52
2021/04/17 09:05:46;;;;;;;12.15;10.38;;;;;;;;;;5136850;27;20047;-52
2021/04/17 09:08:15;;;;;;;12.73;11.40;;;;;;;;;;5136994;27;20038;-53
2021/04/17 09:10:41;;;;;;;12.63;10.65;;;;;;;;;;5136311;27;20023;-52
2021/04/17 09:13:09;;;;;;;10.93;9.82;;;;;;;;;;5132013;27;20057;-52
2021/04/17 09:15:53;;;;;;;12.68;10.32;;;;;;;;;;5116488;28;20023;-52
2021/04/17 09:18:37;;;;;;;13.32;10.50;;;;;;;;;;5116324;28;20020;-48
2021/04/17 09:21:08;;;;;;;9.55;7.93;;;;;;;;;;5113629;28;20073;-52
2021/04/17 09:23:36;;;;;;;11.85;10.50;;;;;;;;;;5114994;28;20016;-54
2021/04/17 09:26:02;;;;;;;10.93;9.75;;;;;;;;;;5113533;28;20026;-51
2021/04/17 09:28:38;;;;;;;9.73;8.50;;;;;;;;;;5128658;27;20106;-52
2021/04/17 09:31:03;;;;;;;12.95;9.23;;;;;;;;;;5134092;27;20023;-53
2021/04/17 09:33:29;;;;;;;11.25;9.40;;;;;;;;;;5135098;27;20023;-51
2021/04/17 09:35:55;;;;;;;10.68;9.23;;;;;;;;;;5136127;27;20022;-51
2021/04/17 09:38:22;;;;;;;8.95;7.60;;;;;;;;;;5136434;27;20047;-52
2021/04/17 09:40:54;;;;;;;11.85;8.32;;;;;;;;;;5135918;27;20102;-51
2021/04/17 09:43:24;;;;;;;10.80;9.00;;;;;;;;;;5134232;27;20023;-49
2021/04/17 09:45:51;;;;;;;6.50;5.90;;;;;;;;;;5136338;27;20023;-51
2021/04/17 09:48:18;;;;;;;9.63;7.47;;;;;;;;;;5122427;27;20047;-50
2021/04/17 09:50:43;;;;;;;9.13;8.00;;;;;;;;;;5114589;28;20020;-50
2021/04/17 09:53:16;;;;;;;7.72;5.65;;;;;;;;;;5112493;28;20101;-50
2021/04/17 09:55:52;;;;;;;7.65;5.70;;;;;;;;;;5115207;28;20479;-51
2021/04/17 09:58:24;;;;;;;4.97;4.32;;;;;;;;;;5115641;28;20016;-51
2021/04/17 10:00:49;;;;;;;6.20;5.60;;;;;;;;;;5115043;28;20020;-53
2021/04/17 10:03:24;;;;;;;6.43;5.70;;;;;;;;;;5113095;28;20015;-52
2021/04/17 10:05:49;;;;;;;6.43;3.55;;;;;;;;;;5127490;27;20038;-51
2021/04/17 10:08:24;;;;;;;6.07;5.47;;;;;;;;;;5135999;27;20027;-47
2021/04/17 10:10:49;;;;;;;7.88;5.60;;;;;;;;;;5133641;27;20094;-50
2021/04/17 10:13:15;;;;;;;8.20;6.03;;;;;;;;;;5132807;27;20048;-48
2021/04/17 10:15:45;;;;;;;5.70;5.10;;;;;;;;;;5135785;27;20027;-52
2021/04/17 10:18:11;;;;;;;5.75;4.40;;;;;;;;;;5135655;27;20043;-52
2021/04/17 10:20:41;;;;;;;4.72;3.55;;;;;;;;;;5135517;27;20076;-50
2021/04/17 10:23:09;;;;;;;7.00;3.92;;;;;;;;;;5132465;27;20042;-48
2021/04/17 10:25:37;;;;;;;5.38;4.88;;;;;;;;;;5133343;27;20066;-53
2021/04/17 10:28:13;;;;;;;5.75;4.97;;;;;;;;;;5115089;28;20099;-51
2021/04/17 10:30:38;;;;;;;;;;;;;;;;;;5115008;28;20489;-51
2021/04/17 10:33:10;;;;;;;4.63;4.22;;;;;;;;;;5111000;28;19903;-49
2021/04/17 10:35:36;;;;;;;6.15;4.35;;;;;;;;;;5113436;28;20016;-51
2021/04/17 10:38:01;;;;;;;4.63;4.20;;;;;;;;;;5114432;28;20054;-50
2021/04/17 10:40:26;;;;;;;5.85;2.47;;;;;;;;;;5114024;28;20382;-52
2021/04/17 10:43:00;;;;;;;6.38;4.13;;;;;;;;;;5111305;28;20012;-51
2021/04/17 10:45:37;;;;;;;5.25;3.75;;;;;;;;;;5114626;28;20015;-49
2021/04/17 10:48:18;;;;;;;3.05;1.88;;;;;;;;;;5115445;27;20015;-48
2021/04/17 10:50:51;;;;;;;4.82;3.80;;;;;;;;;;5131051;27;20056;-47
2021/04/17 10:53:20;;;;;;;5.70;4.85;;;;;;;;;;5111841;28;20024;-53
2021/04/17 10:55:50;;;;;;;8.55;6.32;;;;;;;;;;5114259;28;20034;-51
2021/04/17 10:58:28;;;;;;;5.53;4.28;;;;;;;;;;5114593;28;20050;-51
2021/04/17 11:00:57;;;;;;;7.00;4.88;;;;;;;;;;5113586;27;20016;-51
2021/04/17 11:03:27;;;;;;;5.13;3.45;;;;;;;;;;5112106;28;20041;-50
2021/04/17 11:05:53;;;;;;;4.32;3.13;;;;;;;;;;5126675;27;20102;-51
2021/04/17 11:08:26;;;;;;;4.82;3.22;;;;;;;;;;5135143;27;20543;-52
2021/04/17 11:10:52;;;;;;;4.90;3.58;;;;;;;;;;5133693;27;20047;-52
2021/04/17 11:13:33;;;;;;;7.78;4.88;;;;;;;;;;5132371;27;20018;-53
2021/04/17 11:15:59;;;;;;;5.80;4.90;;;;;;;;;;5134209;27;20359;-51
2021/04/17 11:18:24;;;;;;;7.82;5.22;;;;;;;;;;5133966;27;20071;-52
2021/04/17 11:21:00;;;;;;;7.80;5.30;;;;;;;;;;5133620;27;20023;-49
2021/04/17 11:23:32;;;;;;;8.02;5.68;;;;;;;;;;5133016;27;20064;-53
2021/04/17 11:25:58;;;;;;;10.18;6.22;;;;;;;;;;5114826;27;20072;-50
2021/04/17 11:28:23;;;;;;;4.78;4.32;;;;;;;;;;5113788;27;20124;-53
2021/04/17 11:30:51;;;;;;;5.10;3.70;;;;;;;;;;5113489;28;20016;-52
2021/04/17 11:33:17;;;;;;;4.50;3.88;;;;;;;;;;5109862;28;20022;-53
2021/04/17 11:35:42;;;;;;;5.78;4.05;;;;;;;;;;5113514;28;20095;-51
2021/04/17 11:38:07;;;;;;;5.07;4.57;;;;;;;;;;5113422;28;20352;-51
2021/04/17 11:40:32;;;;;;;5.53;4.13;;;;;;;;;;5113050;28;20061;-53
2021/04/17 11:42:58;;;;;;;4.45;3.85;;;;;;;;;;5113641;27;20011;-52
2021/04/17 11:45:23;;;;;;;5.15;3.25;;;;;;;;;;5134076;27;20027;-52
2021/04/17 11:47:48;;;;;;;3.58;2.83;;;;;;;;;;5133971;27;20386;-51
2021/04/17 11:50:13;;;;;;;2.90;2.63;;;;;;;;;;5133429;27;20011;-51
2021/04/17 11:52:38;;;;;;;5.45;3.15;;;;;;;;;;5130636;27;20135;-52
2021/04/17 11:55:04;;;;;;;4.97;4.00;;;;;;;;;;5133484;27;20015;-51
2021/04/17 11:57:29;;;;;;;5.35;3.55;;;;;;;;;;5134012;27;20098;-53
2021/04/17 11:59:54;;;;;;;8.20;4.13;;;;;;;;;;5133660;27;20023;-48
2021/04/17 12:02:20;;;;;;;4.55;3.80;;;;;;;;;;5130699;27;20026;-54
2021/04/17 12:04:45;;;;;;;4.95;3.30;;;;;;;;;;5123711;27;20030;-53
2021/04/17 12:07:10;;;;;;;3.55;2.55;;;;;;;;;;5112784;28;20183;-49
2021/04/17 12:09:35;;;;;;;5.82;4.50;;;;;;;;;;5112586;28;20474;-50
2021/04/17 12:12:01;;;;;;;5.70;3.78;;;;;;;;;;5109567;28;20064;-52
2021/04/17 12:14:26;;;;;;;5.05;3.85;;;;;;;;;;5113008;28;20536;-52
2021/04/17 12:16:51;;;;;;;5.38;4.70;;;;;;;;;;5112983;28;20055;-51
2021/04/17 12:19:16;;;;;;;6.60;4.53;;;;;;;;;;5113170;28;20023;-54
2021/04/17 12:21:41;;;;;;;6.82;5.13;;;;;;;;;;5109674;28;20020;-54
2021/04/17 12:24:07;;;;;;;6.95;5.38;;;;;;;;;;5112769;28;20379;-52
2021/04/17 12:26:32;;;;;;;5.50;4.70;;;;;;;;;;5112702;28;20107;-50
2021/04/17 12:28:57;;;;;;;7.43;5.20;;;;;;;;;;5112637;28;20047;-49
2021/04/17 12:31:22;;;;;;;6.28;5.22;;;;;;;;;;5109543;28;20286;-51
2021/04/17 12:33:48;;;;;;;7.30;3.88;;;;;;;;;;5114954;28;20098;-51
2021/04/17 12:36:13;;;;;;;5.50;4.22;;;;;;;;;;5117126;28;20045;-52
2021/04/17 12:38:38;;;;;;;6.85;4.85;;;;;;;;;;5117184;28;20023;-52
2021/04/17 12:41:04;;;;;;;5.30;4.78;;;;;;;;;;5114738;28;20024;-53
2021/04/17 12:43:29;;;;;;;5.30;4.20;;;;;;;;;;5123767;27;20015;-51
2021/04/17 12:45:54;;;;;;;10.02;6.68;;;;;;;;;;5137533;27;20095;-53
2021/04/17 12:48:19;;;;;;;5.93;4.97;;;;;;;;;;5137217;27;20060;-47
2021/04/17 12:50:46;;;;;;;10.15;5.25;;;;;;;;;;5136945;27;20023;-53
2021/04/17 12:53:11;;;;;;;7.75;4.75;;;;;;;;;;5134137;27;20011;-51
2021/04/17 12:55:36;;;;;;;7.50;5.90;;;;;;;;;;5137105;27;20015;-47
2021/04/17 12:58:02;;;;;;;7.65;5.05;;;;;;;;;;5136995;27;20019;-51
2021/04/17 13:00:27;;;;;;;5.78;4.63;;;;;;;;;;5132310;27;20019;-51
2021/04/17 13:02:52;;;;;;;6.45;4.13;;;;;;;;;;5113456;28;20026;-48
2021/04/17 13:05:18;;;;;;;6.35;3.72;;;;;;;;;;5116570;28;20016;-53
2021/04/17 13:07:43;;;;;;;5.63;3.95;;;;;;;;;;5116585;28;20016;-53
2021/04/17 13:10:09;;;;;;;6.88;3.60;;;;;;;;;;5116196;28;20027;-53
2021/04/17 13:12:34;;;;;;;8.43;3.70;;;;;;;;;;5113338;28;20100;-51
2021/04/17 13:14:59;;;;;;;6.10;3.25;;;;;;;;;;5123192;27;20373;-55
2021/04/17 13:17:24;;;;;;;4.75;3.30;;;;;;;;;;5136694;27;20458;-53
2021/04/17 13:19:50;;;;;;;6.18;4.22;;;;;;;;;;5136528;27;20019;-52
2021/04/17 13:22:15;;;;;;;4.45;3.00;;;;;;;;;;5133775;27;20027;-51
2021/04/17 13:24:40;;;;;;;7.22;3.92;;;;;;;;;;5136691;27;20062;-53
2021/04/17 13:27:06;;;;;;;6.93;3.92;;;;;;;;;;5136233;27;20054;-51
2021/04/17 13:29:32;;;;;;;6.38;4.25;;;;;;;;;;5136731;27;20431;-52
2021/04/17 13:31:57;;;;;;;7.18;4.32;;;;;;;;;;5133489;27;20019;-53
2021/04/17 13:34:22;;;;;;;9.57;4.28;;;;;;;;;;5136563;27;20046;-49
2021/04/17 13:36:47;;;;;;;8.13;4.43;;;;;;;;;;5136439;27;20015;-52
2021/04/17 13:39:13;;;;;;;5.15;3.78;;;;;;;;;;5136810;27;20019;-52
2021/04/17 13:41:38;;;;;;;7.30;3.03;;;;;;;;;;5133019;27;20023;-49
2021/04/17 13:44:04;;;;;;;7.43;4.30;;;;;;;;;;5116394;27;20024;-50
2021/04/17 13:46:29;;;;;;;5.55;3.90;;;;;;;;;;5115790;28;20019;-52
2021/04/17 13:48:54;;;;;;;8.10;4.75;;;;;;;;;;5115281;28;20016;-54
2021/04/17 13:51:20;;;;;;;5.75;4.18;;;;;;;;;;5112039;27;20042;-54
2021/04/17 13:53:45;;;;;;;6.95;3.90;;;;;;;;;;5115631;28;20380;-53
2021/04/17 13:56:10;;;;;;;5.25;3.30;;;;;;;;;;5115377;28;20023;-55
2021/04/17 13:58:36;;;;;;;8.43;3.25;;;;;;;;;;5115655;28;20020;-52
2021/04/17 14:01:01;;;;;;;5.13;2.72;;;;;;;;;;5113482;28;20084;-52
2021/04/17 14:03:27;;;;;;;4.28;2.85;;;;;;;;;;5114252;28;20069;-49
2021/04/17 14:05:52;;;;;;;6.18;3.03;;;;;;;;;;5115193;28;20491;-49
2021/04/17 14:08:17;;;;;;;4.32;2.03;;;;;;;;;;5115523;28;20046;-53
2021/04/17 14:10:46;;;;;;;3.83;2.17;;;;;;;;;;5114776;28;20102;-51
2021/04/17 14:13:11;;;;;;;4.45;2.10;;;;;;;;;;5112118;28;20012;-51
2021/04/17 14:15:36;;;;;;;7.88;2.30;;;;;;;;;;5126062;27;20050;-51
2021/04/17 14:18:02;;;;;;;6.40;3.50;;;;;;;;;;5135596;27;20012;-50
2021/04/17 14:20:27;;;;;;;6.43;2.72;;;;;;;;;;5130190;27;20484;-48
2021/04/17 14:22:53;;;;;;;4.90;2.65;;;;;;;;;;5110517;28;20023;-48
2021/04/17 14:25:18;;;;;;;5.80;2.17;;;;;;;;;;5114805;28;20031;-53
2021/04/17 14:27:44;;;;;;;5.80;2.53;;;;;;;;;;5114989;28;20031;-53
2021/04/17 14:30:09;;;;;;;5.45;2.10;;;;;;;;;;5114592;28;20031;-49
2021/04/17 14:32:35;;;;;;;3.53;2.03;;;;;;;;;;5111562;28;20023;-51
2021/04/17 14:35:00;;;;;;;4.18;2.13;;;;;;;;;;5115082;28;20020;-52
2021/04/17 14:37:26;;;;;;;4.53;2.38;;;;;;;;;;5114701;28;20019;-52
2021/04/17 14:39:51;;;;;;;4.65;1.80;;;;;;;;;;5133253;27;20023;-52